sensor_id;sensor_type;location;lat;lon;timestamp;P1;durP1;ratioP1;P2;durP2;ratioP2
50695;SDS011;36665;51.786;21.594;2023-02-23T00:02:36;13.60;;;7.00;;
50695;SDS011;36665;51.786;21.594;2023-02-23T00:11:04;11.40;;;6.20;;
50695;SDS011;36665;51.786;21.594;2023-02-23T00:19:28;12.10;;;6.30;;
50695;SDS011;36665;51.786;21.594;2023-02-23T00:27:52;14.60;;;6.10;;
50695;SDS011;36665;51.786;21.594;2023-02-23T00:36:14;9.80;;;5.30;;
50695;SDS011;36665;51.786;21.594;2023-02-23T00:44:39;15.10;;;6.60;;
50695;SDS011;36665;51.786;21.594;2023-02-23T00:53:04;12.10;;;6.00;;
50695;SDS011;36665;51.786;21.594;2023-02-23T01:01:32;16.10;;;8.20;;
50695;SDS011;36665;51.786;21.594;2023-02-23T01:09:55;12.70;;;6.20;;
50695;SDS011;36665;51.786;21.594;2023-02-23T01:18:19;6.20;;;3.70;;
50695;SDS011;36665;51.786;21.594;2023-02-23T01:26:43;21.00;;;10.90;;
50695;SDS011;36665;51.786;21.594;2023-02-23T01:35:08;8.30;;;4.70;;
50695;SDS011;36665;51.786;21.594;2023-02-23T01:43:32;12.70;;;4.60;;
50695;SDS011;36665;51.786;21.594;2023-02-23T01:52:03;9.20;;;4.10;;
50695;SDS011;36665;51.786;21.594;2023-02-23T02:00:32;12.00;;;5.80;;
50695;SDS011;36665;51.786;21.594;2023-02-23T02:09:04;8.20;;;4.80;;
50695;SDS011;36665;51.786;21.594;2023-02-23T02:43:16;5.40;;;3.20;;
50695;SDS011;36665;51.786;21.594;2023-02-23T02:52:07;7.10;;;3.50;;
50695;SDS011;36665;51.786;21.594;2023-02-23T03:00:41;5.40;;;2.70;;
50695;SDS011;36665;51.786;21.594;2023-02-23T03:27:41;6.70;;;3.00;;
50695;SDS011;36665;51.786;21.594;2023-02-23T03:36:46;9.60;;;4.10;;
50695;SDS011;36665;51.786;21.594;2023-02-23T03:45:37;7.90;;;3.90;;
50695;SDS011;36665;51.786;21.594;2023-02-23T03:54:24;10.50;;;5.30;;
50695;SDS011;36665;51.786;21.594;2023-02-23T04:03:30;12.00;;;4.30;;
50695;SDS011;36665;51.786;21.594;2023-02-23T04:12:21;10.70;;;4.90;;
50695;SDS011;36665;51.786;21.594;2023-02-23T04:21:10;6.10;;;3.30;;
50695;SDS011;36665;51.786;21.594;2023-02-23T04:29:33;36.90;;;16.80;;
50695;SDS011;36665;51.786;21.594;2023-02-23T04:37:56;8.50;;;4.70;;
50695;SDS011;36665;51.786;21.594;2023-02-23T04:46:20;9.50;;;4.30;;
50695;SDS011;36665;51.786;21.594;2023-02-23T04:54:44;7.70;;;4.10;;
50695;SDS011;36665;51.786;21.594;2023-02-23T05:03:09;9.00;;;3.60;;
50695;SDS011;36665;51.786;21.594;2023-02-23T05:11:33;11.30;;;5.40;;
50695;SDS011;36665;51.786;21.594;2023-02-23T05:19:56;15.50;;;7.40;;
50695;SDS011;36665;51.786;21.594;2023-02-23T05:28:19;10.80;;;4.10;;
50695;SDS011;36665;51.786;21.594;2023-02-23T05:36:43;6.30;;;3.90;;
50695;SDS011;36665;51.786;21.594;2023-02-23T05:45:06;8.80;;;4.50;;
50695;SDS011;36665;51.786;21.594;2023-02-23T05:53:29;10.90;;;4.80;;
50695;SDS011;36665;51.786;21.594;2023-02-23T06:01:53;12.10;;;4.60;;
50695;SDS011;36665;51.786;21.594;2023-02-23T06:10:16;7.80;;;3.40;;
50695;SDS011;36665;51.786;21.594;2023-02-23T06:18:39;16.90;;;7.70;;
50695;SDS011;36665;51.786;21.594;2023-02-23T06:27:02;9.30;;;5.50;;
50695;SDS011;36665;51.786;21.594;2023-02-23T06:35:25;14.50;;;5.00;;
50695;SDS011;36665;51.786;21.594;2023-02-23T06:43:49;14.50;;;7.10;;
50695;SDS011;36665;51.786;21.594;2023-02-23T06:52:13;10.40;;;5.00;;
50695;SDS011;36665;51.786;21.594;2023-02-23T07:00:37;13.90;;;5.90;;
50695;SDS011;36665;51.786;21.594;2023-02-23T07:09:04;6.00;;;3.20;;
50695;SDS011;36665;51.786;21.594;2023-02-23T07:17:27;19.10;;;9.60;;
50695;SDS011;36665;51.786;21.594;2023-02-23T07:25:51;18.00;;;7.90;;
50695;SDS011;36665;51.786;21.594;2023-02-23T07:34:14;10.70;;;5.40;;
50695;SDS011;36665;51.786;21.594;2023-02-23T07:42:38;12.70;;;5.80;;
50695;SDS011;36665;51.786;21.594;2023-02-23T07:51:00;13.90;;;6.10;;
50695;SDS011;36665;51.786;21.594;2023-02-23T07:59:24;48.10;;;21.10;;
50695;SDS011;36665;51.786;21.594;2023-02-23T08:07:46;11.10;;;5.90;;
50695;SDS011;36665;51.786;21.594;2023-02-23T08:16:10;16.40;;;6.70;;
50695;SDS011;36665;51.786;21.594;2023-02-23T08:24:34;11.70;;;6.60;;
50695;SDS011;36665;51.786;21.594;2023-02-23T08:32:59;15.20;;;6.40;;
50695;SDS011;36665;51.786;21.594;2023-02-23T08:41:24;11.80;;;5.90;;
50695;SDS011;36665;51.786;21.594;2023-02-23T08:49:50;20.00;;;10.20;;
50695;SDS011;36665;51.786;21.594;2023-02-23T09:07:20;10.00;;;6.30;;
50695;SDS011;36665;51.786;21.594;2023-02-23T09:15:47;12.20;;;6.40;;
50695;SDS011;36665;51.786;21.594;2023-02-23T09:24:10;11.20;;;5.70;;
50695;SDS011;36665;51.786;21.594;2023-02-23T09:32:33;12.30;;;6.60;;
50695;SDS011;36665;51.786;21.594;2023-02-23T09:40:57;24.80;;;11.30;;
50695;SDS011;36665;51.786;21.594;2023-02-23T09:49:22;11.50;;;5.90;;
50695;SDS011;36665;51.786;21.594;2023-02-23T09:57:49;10.70;;;5.90;;
50695;SDS011;36665;51.786;21.594;2023-02-23T10:06:12;119.10;;;64.20;;
50695;SDS011;36665;51.786;21.594;2023-02-23T10:23:45;16.40;;;7.00;;
50695;SDS011;36665;51.786;21.594;2023-02-23T10:41:02;16.90;;;10.20;;
50695;SDS011;36665;51.786;21.594;2023-02-23T10:49:28;18.00;;;8.20;;
50695;SDS011;36665;51.786;21.594;2023-02-23T10:58:02;12.90;;;7.40;;
50695;SDS011;36665;51.786;21.594;2023-02-23T11:06:39;12.80;;;7.80;;
50695;SDS011;36665;51.786;21.594;2023-02-23T11:15:27;13.50;;;8.80;;
50695;SDS011;36665;51.786;21.594;2023-02-23T11:24:24;22.30;;;11.20;;
50695;SDS011;36665;51.786;21.594;2023-02-23T11:32:53;14.40;;;8.20;;
50695;SDS011;36665;51.786;21.594;2023-02-23T11:41:20;17.20;;;6.80;;
50695;SDS011;36665;51.786;21.594;2023-02-23T11:49:45;12.90;;;6.80;;
50695;SDS011;36665;51.786;21.594;2023-02-23T12:16:35;13.10;;;7.00;;
50695;SDS011;36665;51.786;21.594;2023-02-23T12:26:04;12.20;;;6.30;;
50695;SDS011;36665;51.786;21.594;2023-02-23T12:34:04;26.20;;;14.70;;
50695;SDS011;36665;51.786;21.594;2023-02-23T12:42:39;17.40;;;7.60;;
50695;SDS011;36665;51.786;21.594;2023-02-23T12:51:41;11.90;;;7.10;;
50695;SDS011;36665;51.786;21.594;2023-02-23T13:09:13;15.00;;;7.60;;
50695;SDS011;36665;51.786;21.594;2023-02-23T13:18:17;11.30;;;5.80;;
50695;SDS011;36665;51.786;21.594;2023-02-23T13:27:14;19.30;;;10.70;;
50695;SDS011;36665;51.786;21.594;2023-02-23T13:35:40;27.30;;;13.40;;
50695;SDS011;36665;51.786;21.594;2023-02-23T13:52:48;17.40;;;11.70;;
50695;SDS011;36665;51.786;21.594;2023-02-23T14:01:21;25.00;;;16.70;;
50695;SDS011;36665;51.786;21.594;2023-02-23T14:27:04;22.00;;;11.30;;
50695;SDS011;36665;51.786;21.594;2023-02-23T14:43:54;16.10;;;7.70;;
50695;SDS011;36665;51.786;21.594;2023-02-23T14:52:28;16.00;;;9.60;;
50695;SDS011;36665;51.786;21.594;2023-02-23T15:00:57;58.50;;;25.50;;
50695;SDS011;36665;51.786;21.594;2023-02-23T15:09:39;26.90;;;11.90;;
50695;SDS011;36665;51.786;21.594;2023-02-23T15:18:04;332.30;;;123.50;;
50695;SDS011;36665;51.786;21.594;2023-02-23T15:26:28;119.10;;;52.70;;
50695;SDS011;36665;51.786;21.594;2023-02-23T15:34:55;34.60;;;17.40;;
50695;SDS011;36665;51.786;21.594;2023-02-23T15:43:18;82.00;;;39.60;;
50695;SDS011;36665;51.786;21.594;2023-02-23T15:51:42;48.50;;;27.10;;
50695;SDS011;36665;51.786;21.594;2023-02-23T16:00:13;109.40;;;47.50;;
50695;SDS011;36665;51.786;21.594;2023-02-23T16:08:58;48.20;;;23.60;;
50695;SDS011;36665;51.786;21.594;2023-02-23T16:17:28;48.90;;;24.80;;
50695;SDS011;36665;51.786;21.594;2023-02-23T16:26:08;64.20;;;34.60;;
50695;SDS011;36665;51.786;21.594;2023-02-23T16:34:44;130.80;;;49.90;;
50695;SDS011;36665;51.786;21.594;2023-02-23T16:43:10;47.50;;;23.80;;
50695;SDS011;36665;51.786;21.594;2023-02-23T16:51:34;70.90;;;40.90;;
50695;SDS011;36665;51.786;21.594;2023-02-23T16:59:58;37.60;;;17.40;;
50695;SDS011;36665;51.786;21.594;2023-02-23T17:08:22;52.60;;;31.70;;
50695;SDS011;36665;51.786;21.594;2023-02-23T17:25:40;332.10;;;123.30;;
50695;SDS011;36665;51.786;21.594;2023-02-23T17:34:03;261.10;;;112.10;;
50695;SDS011;36665;51.786;21.594;2023-02-23T17:42:28;111.20;;;48.70;;
50695;SDS011;36665;51.786;21.594;2023-02-23T17:50:57;36.60;;;19.20;;
50695;SDS011;36665;51.786;21.594;2023-02-23T17:59:22;45.20;;;18.60;;
50695;SDS011;36665;51.786;21.594;2023-02-23T18:07:46;37.80;;;18.20;;
50695;SDS011;36665;51.786;21.594;2023-02-23T18:16:10;33.10;;;17.00;;
50695;SDS011;36665;51.786;21.594;2023-02-23T18:24:34;46.70;;;25.10;;
50695;SDS011;36665;51.786;21.594;2023-02-23T18:32:59;70.00;;;35.50;;
50695;SDS011;36665;51.786;21.594;2023-02-23T18:41:23;42.60;;;19.10;;
50695;SDS011;36665;51.786;21.594;2023-02-23T18:49:52;81.60;;;37.60;;
50695;SDS011;36665;51.786;21.594;2023-02-23T18:58:15;111.00;;;54.10;;
50695;SDS011;36665;51.786;21.594;2023-02-23T19:06:39;49.50;;;25.90;;
50695;SDS011;36665;51.786;21.594;2023-02-23T19:15:07;42.80;;;21.80;;
50695;SDS011;36665;51.786;21.594;2023-02-23T19:23:30;48.40;;;21.30;;
50695;SDS011;36665;51.786;21.594;2023-02-23T19:31:53;42.80;;;18.90;;
50695;SDS011;36665;51.786;21.594;2023-02-23T19:40:20;106.40;;;37.80;;
50695;SDS011;36665;51.786;21.594;2023-02-23T19:48:46;256.50;;;91.50;;
50695;SDS011;36665;51.786;21.594;2023-02-23T19:57:13;231.90;;;73.60;;
50695;SDS011;36665;51.786;21.594;2023-02-23T20:05:39;286.10;;;113.90;;
50695;SDS011;36665;51.786;21.594;2023-02-23T20:14:03;456.00;;;167.60;;
50695;SDS011;36665;51.786;21.594;2023-02-23T20:22:28;95.20;;;37.60;;
50695;SDS011;36665;51.786;21.594;2023-02-23T20:30:54;175.00;;;66.60;;
50695;SDS011;36665;51.786;21.594;2023-02-23T20:39:17;195.30;;;89.20;;
50695;SDS011;36665;51.786;21.594;2023-02-23T20:47:40;178.40;;;60.10;;
50695;SDS011;36665;51.786;21.594;2023-02-23T21:05:56;159.30;;;63.00;;
50695;SDS011;36665;51.786;21.594;2023-02-23T21:14:19;308.50;;;119.70;;
50695;SDS011;36665;51.786;21.594;2023-02-23T21:22:43;401.50;;;156.60;;
50695;SDS011;36665;51.786;21.594;2023-02-23T21:31:08;362.40;;;155.00;;
50695;SDS011;36665;51.786;21.594;2023-02-23T21:39:32;228.30;;;82.10;;
50695;SDS011;36665;51.786;21.594;2023-02-23T21:47:55;134.30;;;70.10;;
50695;SDS011;36665;51.786;21.594;2023-02-23T21:56:19;103.40;;;48.00;;
50695;SDS011;36665;51.786;21.594;2023-02-23T22:04:47;194.50;;;89.80;;
50695;SDS011;36665;51.786;21.594;2023-02-23T22:13:12;41.90;;;22.00;;
50695;SDS011;36665;51.786;21.594;2023-02-23T22:21:36;48.60;;;24.70;;
50695;SDS011;36665;51.786;21.594;2023-02-23T22:30:02;67.20;;;41.00;;
50695;SDS011;36665;51.786;21.594;2023-02-23T22:38:26;50.80;;;26.70;;
50695;SDS011;36665;51.786;21.594;2023-02-23T22:46:49;41.90;;;22.30;;
50695;SDS011;36665;51.786;21.594;2023-02-23T22:55:13;41.70;;;20.10;;
50695;SDS011;36665;51.786;21.594;2023-02-23T23:03:40;30.60;;;15.80;;
50695;SDS011;36665;51.786;21.594;2023-02-23T23:12:07;33.20;;;17.00;;
50695;SDS011;36665;51.786;21.594;2023-02-23T23:20:30;41.70;;;16.50;;
50695;SDS011;36665;51.786;21.594;2023-02-23T23:28:54;43.60;;;19.90;;
50695;SDS011;36665;51.786;21.594;2023-02-23T23:37:19;39.90;;;18.60;;
50695;SDS011;36665;51.786;21.594;2023-02-23T23:45:42;38.10;;;18.70;;
50695;SDS011;36665;51.786;21.594;2023-02-23T23:54:06;36.50;;;18.60;;
